VOE2BP LFRN-LFML
Flight info
| Callsign | VOE2BP |
|---|---|
| Flight time | 1h 8m |
| Altitude | 33000 |
| Route | GODAN A25 NTS UM616 USODA UM184 TUPAR DCT DIDRU DCT ADATU DCT LERGA |
| Aircraft | A319/M-SDE3FGHIRWY/LB1 |
Departure
| Time | 2026-04-16 14:37 |
|---|---|
| Airport | Rennes-Saint-Jacques Airport (LFRN) |
Arrival
| Time | 2026-04-16 15:46 |
|---|---|
| Airport | Marseille Provence Airport (LFML) |
| Time | Latitude | Longitude | Altitude | Speed | Heading |
|---|---|---|---|---|---|
| 2026-04-16 14:28 | 48.06909 | -1.72732 | 133 ft | 0 kts | 224° |
| 2026-04-16 14:34 | 48.06908 | -1.72743 | 133 ft | 3 kts | 262° |
| 2026-04-16 14:34 | 48.06926 | -1.72752 | 133 ft | 2 kts | 12° |
| 2026-04-16 14:34 | 48.06943 | -1.72737 | 133 ft | 3 kts | 28° |
| 2026-04-16 14:34 | 48.06968 | -1.72710 | 133 ft | 5 kts | 52° |
| 2026-04-16 14:35 | 48.06969 | -1.72660 | 133 ft | 5 kts | 96° |
| 2026-04-16 14:35 | 48.06962 | -1.72600 | 133 ft | 8 kts | 101° |
| 2026-04-16 14:35 | 48.06948 | -1.72495 | 133 ft | 13 kts | 100° |
| 2026-04-16 14:35 | 48.06931 | -1.72352 | 133 ft | 12 kts | 100° |
| 2026-04-16 14:36 | 48.06927 | -1.72234 | 133 ft | 11 kts | 82° |
| 2026-04-16 14:36 | 48.06959 | -1.72131 | 132 ft | 12 kts | 31° |
| 2026-04-16 14:36 | 48.07050 | -1.72124 | 129 ft | 13 kts | 326° |
| 2026-04-16 14:36 | 48.07060 | -1.72160 | 130 ft | 0 kts | 280° |
| 2026-04-16 14:37 | 48.07080 | -1.72327 | 132 ft | 50 kts | 280° |
| 2026-04-16 14:37 | 48.07191 | -1.73199 | 129 ft | 118 kts | 280° |
| 2026-04-16 14:37 | 48.07378 | -1.74651 | 265 ft | 151 kts | 279° |
| 2026-04-16 14:37 | 48.07597 | -1.76132 | 948 ft | 145 kts | 278° |
| 2026-04-16 14:38 | 48.07787 | -1.77603 | 1563 ft | 144 kts | 276° |
| 2026-04-16 14:38 | 48.07946 | -1.79102 | 2086 ft | 153 kts | 271° |
| 2026-04-16 14:38 | 48.07898 | -1.80795 | 2418 ft | 173 kts | 258° |
| 2026-04-16 14:38 | 48.07526 | -1.82622 | 2703 ft | 197 kts | 243° |
| 2026-04-16 14:39 | 48.06724 | -1.84432 | 3129 ft | 221 kts | 226° |
| 2026-04-16 14:39 | 48.05455 | -1.85925 | 3618 ft | 244 kts | 208° |
| 2026-04-16 14:39 | 48.03823 | -1.86676 | 4462 ft | 254 kts | 189° |
| 2026-04-16 14:39 | 48.02055 | -1.87016 | 5416 ft | 258 kts | 193° |
| 2026-04-16 14:40 | 48.00325 | -1.87788 | 6405 ft | 260 kts | 204° |
| 2026-04-16 14:40 | 47.98715 | -1.89020 | 7355 ft | 261 kts | 214° |
| 2026-04-16 14:40 | 47.97168 | -1.90479 | 8260 ft | 266 kts | 210° |
| 2026-04-16 14:40 | 47.95417 | -1.91436 | 9163 ft | 273 kts | 194° |
| 2026-04-16 14:41 | 47.93510 | -1.91775 | 10082 ft | 278 kts | 188° |
| 2026-04-16 14:41 | 47.91550 | -1.92056 | 10670 ft | 293 kts | 188° |
| 2026-04-16 14:41 | 47.89432 | -1.92370 | 10940 ft | 317 kts | 188° |
| 2026-04-16 14:41 | 47.87156 | -1.92707 | 11192 ft | 340 kts | 188° |
| 2026-04-16 14:42 | 47.84765 | -1.93053 | 11771 ft | 349 kts | 188° |
| 2026-04-16 14:42 | 47.82334 | -1.93398 | 12474 ft | 354 kts | 188° |
| 2026-04-16 14:42 | 47.79868 | -1.93748 | 13190 ft | 358 kts | 188° |
| 2026-04-16 14:42 | 47.77370 | -1.94105 | 13895 ft | 362 kts | 188° |
| 2026-04-16 14:43 | 47.74847 | -1.94469 | 14542 ft | 366 kts | 188° |
| 2026-04-16 14:43 | 47.72297 | -1.94836 | 15174 ft | 370 kts | 188° |
| 2026-04-16 14:43 | 47.69722 | -1.95204 | 15801 ft | 374 kts | 188° |
| 2026-04-16 14:43 | 47.67116 | -1.95535 | 16439 ft | 379 kts | 185° |
| 2026-04-16 14:44 | 47.64459 | -1.95274 | 17035 ft | 388 kts | 174° |
| 2026-04-16 14:44 | 47.61828 | -1.94204 | 17664 ft | 397 kts | 162° |
| 2026-04-16 14:44 | 47.59334 | -1.92478 | 18261 ft | 403 kts | 157° |
| 2026-04-16 14:44 | 47.56811 | -1.90640 | 18815 ft | 406 kts | 157° |
| 2026-04-16 14:45 | 47.54265 | -1.88786 | 19368 ft | 409 kts | 157° |
| 2026-04-16 14:45 | 47.51702 | -1.86921 | 19903 ft | 412 kts | 157° |
| 2026-04-16 14:45 | 47.49115 | -1.85043 | 20417 ft | 415 kts | 157° |
| 2026-04-16 14:45 | 47.46509 | -1.83158 | 20928 ft | 418 kts | 158° |
| 2026-04-16 14:46 | 47.43888 | -1.81266 | 21429 ft | 421 kts | 158° |
| 2026-04-16 14:46 | 47.41243 | -1.79362 | 21913 ft | 424 kts | 158° |
| 2026-04-16 14:46 | 47.38580 | -1.77449 | 22398 ft | 427 kts | 158° |
| 2026-04-16 14:46 | 47.35898 | -1.75518 | 22864 ft | 430 kts | 158° |
| 2026-04-16 14:47 | 47.33200 | -1.73574 | 23332 ft | 433 kts | 157° |
| 2026-04-16 14:47 | 47.30487 | -1.71619 | 23785 ft | 435 kts | 158° |
| 2026-04-16 14:47 | 47.27755 | -1.69654 | 24163 ft | 438 kts | 158° |
| 2026-04-16 14:47 | 47.25013 | -1.67683 | 24546 ft | 440 kts | 158° |
| 2026-04-16 14:48 | 47.22281 | -1.65728 | 24915 ft | 443 kts | 158° |
| 2026-04-16 14:48 | 47.19500 | -1.63742 | 25259 ft | 446 kts | 158° |
| 2026-04-16 14:48 | 47.16744 | -1.61587 | 25597 ft | 452 kts | 151° |
| 2026-04-16 14:48 | 47.14205 | -1.58824 | 25955 ft | 458 kts | 142° |
| 2026-04-16 14:49 | 47.11827 | -1.55667 | 26325 ft | 461 kts | 141° |
| 2026-04-16 14:49 | 47.09441 | -1.52511 | 26672 ft | 463 kts | 141° |
| 2026-04-16 14:49 | 47.07034 | -1.49348 | 27019 ft | 465 kts | 141° |
| 2026-04-16 14:49 | 47.04611 | -1.46183 | 27366 ft | 467 kts | 142° |
| 2026-04-16 14:50 | 47.02176 | -1.43014 | 27702 ft | 469 kts | 142° |
| 2026-04-16 14:50 | 46.99733 | -1.39834 | 28029 ft | 471 kts | 142° |
| 2026-04-16 14:50 | 46.97278 | -1.36633 | 28357 ft | 473 kts | 142° |
| 2026-04-16 14:50 | 46.94816 | -1.33417 | 28664 ft | 475 kts | 142° |
| 2026-04-16 14:51 | 46.92345 | -1.30180 | 28982 ft | 477 kts | 141° |
| 2026-04-16 14:51 | 46.89867 | -1.26935 | 29290 ft | 479 kts | 142° |
| 2026-04-16 14:51 | 46.87382 | -1.23688 | 29664 ft | 479 kts | 142° |
| 2026-04-16 14:51 | 46.84892 | -1.20440 | 30095 ft | 479 kts | 141° |
| 2026-04-16 14:53 | 46.67546 | -0.97966 | 32742 ft | 473 kts | 142° |
| 2026-04-16 14:53 | 46.65118 | -0.94844 | 33114 ft | 473 kts | 143° |
| 2026-04-16 14:54 | 46.62649 | -0.91674 | 33228 ft | 472 kts | 143° |
| 2026-04-16 14:54 | 46.60189 | -0.88516 | 33248 ft | 472 kts | 143° |
| 2026-04-16 14:54 | 46.55284 | -0.82200 | 33239 ft | 471 kts | 142° |
| 2026-04-16 14:55 | 46.50377 | -0.75862 | 33253 ft | 473 kts | 142° |
| 2026-04-16 14:55 | 46.45462 | -0.69512 | 33250 ft | 474 kts | 140° |
| 2026-04-16 14:56 | 46.41380 | -0.61922 | 33245 ft | 483 kts | 122° |
| 2026-04-16 14:56 | 46.38313 | -0.53229 | 33246 ft | 484 kts | 120° |
| 2026-04-16 14:57 | 46.35271 | -0.44607 | 33239 ft | 484 kts | 120° |
| 2026-04-16 14:57 | 46.32189 | -0.35942 | 33243 ft | 484 kts | 120° |
| 2026-04-16 14:58 | 46.27545 | -0.22979 | 33244 ft | 484 kts | 120° |
| 2026-04-16 14:59 | 46.24451 | -0.14348 | 33244 ft | 483 kts | 120° |
| 2026-04-16 14:59 | 46.21357 | -0.05722 | 33243 ft | 483 kts | 120° |
| 2026-04-16 15:00 | 46.18322 | 0.02943 | 33234 ft | 485 kts | 115° |
| 2026-04-16 15:00 | 46.16195 | 0.12209 | 33218 ft | 487 kts | 109° |
| 2026-04-16 15:01 | 46.14174 | 0.21529 | 33225 ft | 487 kts | 109° |
| 2026-04-16 15:01 | 46.12486 | 0.29277 | 33229 ft | 487 kts | 109° |
| 2026-04-16 15:02 | 46.10442 | 0.38587 | 33236 ft | 487 kts | 109° |
| 2026-04-16 15:02 | 46.08396 | 0.47891 | 33237 ft | 487 kts | 109° |
| 2026-04-16 15:03 | 46.06344 | 0.57200 | 33233 ft | 487 kts | 109° |
| 2026-04-16 15:03 | 46.04283 | 0.66492 | 33239 ft | 487 kts | 109° |
| 2026-04-16 15:04 | 46.02208 | 0.75780 | 33249 ft | 487 kts | 109° |
| 2026-04-16 15:04 | 46.00131 | 0.85062 | 33241 ft | 488 kts | 109° |
| 2026-04-16 15:05 | 45.98039 | 0.94346 | 33243 ft | 488 kts | 109° |
| 2026-04-16 15:05 | 45.95952 | 1.03560 | 33236 ft | 487 kts | 109° |
| 2026-04-16 15:06 | 45.93850 | 1.12814 | 33238 ft | 487 kts | 109° |
| 2026-04-16 15:06 | 45.91745 | 1.22060 | 33242 ft | 486 kts | 108° |
| 2026-04-16 15:07 | 45.89639 | 1.31282 | 33239 ft | 486 kts | 108° |
| 2026-04-16 15:07 | 45.87523 | 1.40488 | 33238 ft | 486 kts | 109° |
| 2026-04-16 15:08 | 45.85394 | 1.49704 | 33238 ft | 486 kts | 109° |
| 2026-04-16 15:08 | 45.83263 | 1.58913 | 33237 ft | 487 kts | 108° |
| 2026-04-16 15:09 | 45.81120 | 1.68123 | 33238 ft | 487 kts | 108° |
| 2026-04-16 15:09 | 45.78968 | 1.77314 | 33240 ft | 486 kts | 108° |
| 2026-04-16 15:10 | 45.76810 | 1.86494 | 33234 ft | 486 kts | 108° |
| 2026-04-16 15:10 | 45.74667 | 1.95605 | 33222 ft | 486 kts | 108° |
| 2026-04-16 15:11 | 45.72501 | 2.04762 | 33231 ft | 485 kts | 108° |
| 2026-04-16 15:11 | 45.70323 | 2.13902 | 33232 ft | 485 kts | 108° |
| 2026-04-16 15:12 | 45.68142 | 2.23031 | 33229 ft | 485 kts | 108° |
| 2026-04-16 15:12 | 45.65958 | 2.32163 | 33223 ft | 485 kts | 108° |
| 2026-04-16 15:13 | 45.63766 | 2.41285 | 33228 ft | 485 kts | 108° |
| 2026-04-16 15:13 | 45.61570 | 2.50392 | 33230 ft | 485 kts | 108° |
| 2026-04-16 15:14 | 45.59360 | 2.59498 | 33231 ft | 485 kts | 108° |
| 2026-04-16 15:14 | 45.57145 | 2.68611 | 33229 ft | 485 kts | 108° |
| 2026-04-16 15:15 | 45.54914 | 2.77710 | 33238 ft | 485 kts | 108° |
| 2026-04-16 15:15 | 45.52604 | 2.86746 | 33233 ft | 485 kts | 111° |
| 2026-04-16 15:16 | 45.49970 | 2.95592 | 33236 ft | 484 kts | 113° |
| 2026-04-16 15:16 | 45.47245 | 3.04303 | 33237 ft | 484 kts | 113° |
| 2026-04-16 15:17 | 45.44556 | 3.13092 | 33237 ft | 483 kts | 112° |
| 2026-04-16 15:17 | 45.41913 | 3.21917 | 33233 ft | 483 kts | 112° |
| 2026-04-16 15:18 | 45.39289 | 3.30659 | 33222 ft | 483 kts | 112° |
| 2026-04-16 15:18 | 45.36628 | 3.39433 | 33218 ft | 483 kts | 112° |
| 2026-04-16 15:19 | 45.33956 | 3.48195 | 33207 ft | 483 kts | 112° |
| 2026-04-16 15:19 | 45.31280 | 3.56941 | 33206 ft | 482 kts | 112° |
| 2026-04-16 15:20 | 45.28597 | 3.65686 | 33207 ft | 482 kts | 112° |
| 2026-04-16 15:20 | 45.25931 | 3.74420 | 33206 ft | 482 kts | 109° |
| 2026-04-16 15:21 | 45.24000 | 3.83501 | 33234 ft | 481 kts | 104° |
| 2026-04-16 15:21 | 45.22144 | 3.92619 | 33242 ft | 481 kts | 104° |
| 2026-04-16 15:22 | 45.20267 | 4.01741 | 33234 ft | 481 kts | 104° |
| 2026-04-16 15:22 | 45.18396 | 4.10773 | 33228 ft | 480 kts | 104° |
| 2026-04-16 15:23 | 45.16519 | 4.19870 | 33222 ft | 480 kts | 104° |
| 2026-04-16 15:23 | 45.14635 | 4.28950 | 33216 ft | 480 kts | 104° |
| 2026-04-16 15:24 | 45.12670 | 4.37982 | 33212 ft | 481 kts | 110° |
| 2026-04-16 15:24 | 45.09314 | 4.46159 | 33195 ft | 483 kts | 128° |
| 2026-04-16 15:25 | 45.04448 | 4.52684 | 33193 ft | 483 kts | 140° |
| 2026-04-16 15:25 | 44.99286 | 4.58771 | 33186 ft | 483 kts | 140° |
| 2026-04-16 15:26 | 44.94119 | 4.64865 | 33170 ft | 483 kts | 140° |
| 2026-04-16 15:26 | 44.88951 | 4.70929 | 33152 ft | 483 kts | 140° |
| 2026-04-16 15:27 | 44.83809 | 4.76939 | 33151 ft | 483 kts | 140° |
| 2026-04-16 15:27 | 44.78598 | 4.83011 | 33149 ft | 483 kts | 140° |
| 2026-04-16 15:28 | 44.73132 | 4.88373 | 33146 ft | 483 kts | 154° |
| 2026-04-16 15:28 | 44.66795 | 4.91376 | 33140 ft | 481 kts | 171° |
| 2026-04-16 15:29 | 44.60197 | 4.92932 | 33135 ft | 481 kts | 172° |
| 2026-04-16 15:29 | 44.53601 | 4.94481 | 33130 ft | 481 kts | 172° |
| 2026-04-16 15:30 | 44.46995 | 4.96018 | 33123 ft | 481 kts | 171° |
| 2026-04-16 15:30 | 44.40385 | 4.97550 | 33115 ft | 481 kts | 171° |
| 2026-04-16 15:31 | 44.33778 | 4.99077 | 33048 ft | 481 kts | 171° |
| 2026-04-16 15:31 | 44.30463 | 4.99840 | 31978 ft | 486 kts | 171° |
| 2026-04-16 15:31 | 44.27097 | 5.00620 | 30765 ft | 495 kts | 171° |
| 2026-04-16 15:31 | 44.23680 | 5.01413 | 29633 ft | 498 kts | 172° |
| 2026-04-16 15:32 | 44.20252 | 5.02206 | 28406 ft | 499 kts | 172° |
| 2026-04-16 15:32 | 44.16823 | 5.02994 | 26976 ft | 500 kts | 172° |
| 2026-04-16 15:32 | 44.13377 | 5.03787 | 25557 ft | 502 kts | 172° |
| 2026-04-16 15:32 | 44.09951 | 5.04578 | 24389 ft | 497 kts | 171° |
| 2026-04-16 15:33 | 44.06551 | 5.05359 | 23208 ft | 492 kts | 171° |
| 2026-04-16 15:33 | 44.03194 | 5.06128 | 22049 ft | 485 kts | 171° |
| 2026-04-16 15:33 | 43.99890 | 5.06883 | 20996 ft | 478 kts | 172° |
| 2026-04-16 15:33 | 43.96628 | 5.07626 | 19962 ft | 472 kts | 171° |
| 2026-04-16 15:34 | 43.93414 | 5.08359 | 19036 ft | 464 kts | 171° |
| 2026-04-16 15:34 | 43.90254 | 5.09083 | 18101 ft | 457 kts | 171° |
| 2026-04-16 15:34 | 43.87185 | 5.10070 | 17115 ft | 450 kts | 162° |
| 2026-04-16 15:34 | 43.84266 | 5.11457 | 16281 ft | 442 kts | 161° |
| 2026-04-16 15:35 | 43.81398 | 5.12822 | 15719 ft | 429 kts | 161° |
| 2026-04-16 15:35 | 43.78603 | 5.14147 | 15154 ft | 422 kts | 161° |
| 2026-04-16 15:35 | 43.75837 | 5.15450 | 14586 ft | 418 kts | 161° |
| 2026-04-16 15:35 | 43.73094 | 5.16743 | 14004 ft | 415 kts | 161° |
| 2026-04-16 15:36 | 43.70369 | 5.18027 | 13372 ft | 412 kts | 161° |
| 2026-04-16 15:36 | 43.67706 | 5.19258 | 12754 ft | 407 kts | 162° |
| 2026-04-16 15:36 | 43.65031 | 5.20468 | 12119 ft | 402 kts | 162° |
| 2026-04-16 15:36 | 43.62384 | 5.21649 | 11452 ft | 398 kts | 162° |
| 2026-04-16 15:37 | 43.59762 | 5.22728 | 11108 ft | 385 kts | 168° |
| 2026-04-16 15:37 | 43.57176 | 5.23162 | 10984 ft | 365 kts | 179° |
| 2026-04-16 15:37 | 43.54700 | 5.22985 | 10863 ft | 348 kts | 186° |
| 2026-04-16 15:37 | 43.52341 | 5.22692 | 10743 ft | 333 kts | 186° |
| 2026-04-16 15:38 | 43.50075 | 5.22414 | 10617 ft | 321 kts | 186° |
| 2026-04-16 15:38 | 43.47895 | 5.22149 | 10496 ft | 309 kts | 186° |
| 2026-04-16 15:38 | 43.45783 | 5.21891 | 10289 ft | 301 kts | 186° |
| 2026-04-16 15:38 | 43.43717 | 5.21638 | 10214 ft | 297 kts | 186° |
| 2026-04-16 15:39 | 43.41661 | 5.21389 | 10100 ft | 296 kts | 185° |
| 2026-04-16 15:39 | 43.39587 | 5.21148 | 9526 ft | 303 kts | 185° |
| 2026-04-16 15:39 | 43.37507 | 5.20913 | 9247 ft | 296 kts | 185° |
| 2026-04-16 15:39 | 43.35455 | 5.20683 | 8840 ft | 295 kts | 185° |
| 2026-04-16 15:40 | 43.33414 | 5.20455 | 8462 ft | 293 kts | 185° |
| 2026-04-16 15:40 | 43.31422 | 5.20235 | 8317 ft | 281 kts | 185° |
| 2026-04-16 15:40 | 43.29506 | 5.20165 | 8100 ft | 271 kts | 174° |
| 2026-04-16 15:40 | 43.27692 | 5.20753 | 7418 ft | 278 kts | 157° |
| 2026-04-16 15:41 | 43.26005 | 5.22147 | 6652 ft | 288 kts | 140° |
| 2026-04-16 15:41 | 43.24482 | 5.23834 | 6478 ft | 273 kts | 141° |
| 2026-04-16 15:41 | 43.23162 | 5.25582 | 6247 ft | 259 kts | 123° |
| 2026-04-16 15:41 | 43.22551 | 5.27899 | 5446 ft | 267 kts | 92° |
| 2026-04-16 15:42 | 43.22956 | 5.30394 | 4606 ft | 275 kts | 60° |
| 2026-04-16 15:42 | 43.24290 | 5.32231 | 4077 ft | 271 kts | 27° |
| 2026-04-16 15:42 | 43.26032 | 5.32881 | 3945 ft | 252 kts | 1° |
| 2026-04-16 15:42 | 43.27725 | 5.32880 | 3816 ft | 235 kts | 359° |
| 2026-04-16 15:43 | 43.29330 | 5.32850 | 3532 ft | 228 kts | 359° |
| 2026-04-16 15:43 | 43.30904 | 5.32815 | 3174 ft | 224 kts | 357° |
| 2026-04-16 15:43 | 43.32445 | 5.32775 | 2940 ft | 215 kts | 358° |
| 2026-04-16 15:43 | 43.33920 | 5.32739 | 2888 ft | 211 kts | 358° |
| 2026-04-16 15:44 | 43.35382 | 5.32630 | 2691 ft | 212 kts | 346° |
| 2026-04-16 15:44 | 43.36626 | 5.31626 | 2426 ft | 209 kts | 313° |
| 2026-04-16 15:44 | 43.37600 | 5.30154 | 2112 ft | 209 kts | 312° |
| 2026-04-16 15:44 | 43.38580 | 5.28736 | 1759 ft | 205 kts | 313° |
| 2026-04-16 15:45 | 43.39572 | 5.27325 | 1396 ft | 201 kts | 313° |
| 2026-04-16 15:45 | 43.40509 | 5.25995 | 1067 ft | 193 kts | 313° |
| 2026-04-16 15:45 | 43.41412 | 5.24714 | 732 ft | 179 kts | 312° |
| 2026-04-16 15:45 | 43.42232 | 5.23553 | 447 ft | 157 kts | 311° |
| 2026-04-16 15:46 | 43.42965 | 5.22531 | 138 ft | 146 kts | 311° |
| 2026-04-16 15:46 | 43.43612 | 5.21589 | 36 ft | 116 kts | 314° |
| 2026-04-16 15:46 | 43.43938 | 5.21156 | 36 ft | 25 kts | 333° |
| 2026-04-16 15:46 | 43.44059 | 5.21098 | 34 ft | 14 kts | 343° |
| 2026-04-16 15:47 | 43.44147 | 5.21084 | 37 ft | 10 kts | 7° |
| 2026-04-16 15:47 | 43.44162 | 5.21144 | 37 ft | 9 kts | 133° |
| 2026-04-16 15:47 | 43.44119 | 5.21208 | 37 ft | 9 kts | 133° |
| 2026-04-16 15:47 | 43.44072 | 5.21276 | 37 ft | 10 kts | 135° |
| 2026-04-16 15:48 | 43.44019 | 5.21350 | 37 ft | 11 kts | 134° |
| 2026-04-16 15:48 | 43.43962 | 5.21432 | 37 ft | 12 kts | 133° |
| 2026-04-16 15:48 | 43.43921 | 5.21533 | 37 ft | 13 kts | 86° |
| 2026-04-16 15:48 | 43.43953 | 5.21602 | 37 ft | 13 kts | 44° |
| 2026-04-16 15:49 | 43.44022 | 5.21690 | 37 ft | 12 kts | 43° |
| 2026-04-16 15:49 | 43.44082 | 5.21771 | 37 ft | 12 kts | 44° |
| 2026-04-16 15:49 | 43.44107 | 5.21871 | 37 ft | 12 kts | 124° |
| 2026-04-16 15:49 | 43.44047 | 5.21959 | 37 ft | 13 kts | 133° |
| 2026-04-16 15:50 | 43.43981 | 5.22052 | 37 ft | 14 kts | 134° |
| 2026-04-16 15:50 | 43.43987 | 5.22134 | 37 ft | 10 kts | 32° |
| 2026-04-16 15:50 | 43.44020 | 5.22164 | 37 ft | 0 kts | 34° |